Observations for BERGAMO ORIO SERIO, Italy (LIME)

LIME 191950Z 03005KT 9999 SCT040 BKN075 16/15 Q1016 NOSIG   
LIME 191920Z 05005KT 9999 -RA SCT030 BKN080 16/14 Q1015 NOSIG   
LIME 191850Z 02006KT 9999 -RA SCT030 BKN090 15/14 Q1015 NOSIG   
LIME 191820Z 01004KT 9999 -RA BKN025 15/15 Q1016 NOSIG  
LIME 191750Z 01004KT 9999 -RA BKN030 16/15 Q1016 RERA NOSIG 
LIME 191720Z 01003KT 9999 RA BKN045 16/15 Q1015 NOSIG   
LIME 191650Z 04002KT 9999 BKN050 16/15 Q1015 NOSIG  
LIME 191620Z VRB02KT 9999 SCT035 BKN045 17/14 Q1015 NOSIG   
LIME 191550Z VRB02KT 9999 SCT035 BKN090 17/14 Q1015 NOSIG   
LIME 191520Z 06003KT 9999 BKN090 17/15 Q1015 NOSIG  
LIME 191450Z 06003KT 040V110 9999 BKN050 18/14 Q1015 NOSIG  
LIME 191420Z 03003KT 350V060 9999 BKN045 18/14 Q1015 NOSIG  
LIME 191350Z 06003KT 030V090 9999 BKN045 17/14 Q1015 NOSIG  
LIME 191320Z 06003KT 020V090 9999 BKN050 17/14 Q1015 NOSIG  
LIME 191250Z 06004KT 030V090 9999 SCT040 BKN060 17/13 Q1015 NOSIG   
LIME 191220Z 05004KT 030V100 9999 FEW035 BKN050 16/14 Q1015 NOSIG   
LIME 191150Z 05005KT 020V080 9999 SCT035 BKN060 16/14 Q1015 NOSIG   
LIME 191120Z VRB02KT 9999 SCT030 BKN050 16/14 Q1016 NOSIG   
LIME 191050Z 13003KT 090V160 9999 SCT030 BKN050 15/14 Q1016 REDZ NOSIG  
LIME 191020Z VRB01KT 8000 DZ SCT030 BKN050 15/14 Q1016 NOSIG
LIME 190950Z VRB02KT 7000 -DZ BKN035 15/14 Q1016 REDZ NOSIG 
LIME 190920Z 04004KT 6000 DZ BKN035 15/14 Q1016 NOSIG   
LIME 190850Z 06003KT 7000 DZ BKN030 14/14 Q1015 NOSIG   
LIME 190820Z 04003KT 6000 DZ BKN025 14/14 Q1015 NOSIG   
LIME 190720Z 06004KT 9999 -DZ BKN040 15/13 Q1015 NOSIG  
LIME 190650Z 01005KT 9999 -DZ SCT030 BKN050 14/14 Q1015 RERA NOSIG  
LIME 190620Z 03006KT 8000 -RA SCT030 BKN050 14/13 Q1015 RERA NOSIG  
LIME 190550Z VRB01KT 4000 RA SCT025 BKN040 14/13 Q1015 NOSIG
LIME 190520Z 03005KT 9999 SCT035 BKN045 14/13 Q1015 NOSIG   
LIME 190450Z 06005KT 030V090 9999 SCT035 BKN045 14/13 Q1015 NOSIG   
LIME 190420Z 04004KT 9999 FEW025 BKN040 14/13 Q1015 NOSIG   
LIME 190350Z 03004KT 9999 FEW025 BKN040 14/13 Q1015 NOSIG   
LIME 190320Z 02005KT 9000 SCT025 BKN040 14/13 Q1015 NOSIG   
LIME 190250Z 05004KT 8000 -RA SCT020 BKN035 14/13 Q1015 NOSIG   
LIME 190220Z 08004KT 7000 -RA SCT015 BKN035 14/13 Q1016 NOSIG   
LIME 190150Z 05003KT 8000 -RA SCT020 BKN035 14/13 Q1016 RERA NOSIG  
LIME 190120Z 05004KT 6000 RA SCT020 BKN035 14/13 Q1016 NOSIG
LIME 190050Z 03005KT 8000 -RA SCT025 BKN045 14/13 Q1016 NOSIG   
LIME 190020Z 04004KT 8000 -RA SCT025 BKN045 14/13 Q1016 NOSIG   
LIME 182350Z VRB02KT 7000 SCT025 BKN045 14/14 Q1017 NOSIG   
LIME 182320Z 03004KT 7000 -RA SCT025 BKN045 14/13 Q1017 NOSIG   
LIME 182250Z 03003KT 6000 -RA SCT025 BKN045 14/14 Q1017 NOSIG   
LIME 182220Z 05003KT 030V090 6000 -RA SCT020 BKN045 14/13 Q1017 NOSIG   
LIME 182150Z 05002KT 6000 -RA SCT025 BKN045 14/14 Q1017 NOSIG   
LIME 182120Z VRB01KT 6000 -RA SCT025 BKN050 15/13 Q1017 NOSIG   
LIME 182050Z 03003KT 9000 -RA BKN050 15/14 Q1017 NOSIG  
LIME 182020Z VRB02KT 9000 BKN050 15/14 Q1017 NOSIG  
LIME 181950Z VRB01KT 9999 SCT025 BKN070 15/14 Q1017 NOSIG   
LIME 181920Z VRB02KT 9999 SCT025 BKN070 15/14 Q1017 NOSIG